createdAt,value
2019-01-24T00:01:50.742Z,100014.77
2019-01-24T00:04:21.557Z,100023.34
2019-01-24T00:06:52.252Z,100022.90
2019-01-24T00:09:22.758Z,100023.31
2019-01-24T00:11:53.213Z,100022.90
2019-01-24T00:14:23.696Z,100031.00
2019-01-24T00:16:54.152Z,100033.97
2019-01-24T00:19:24.912Z,100039.48
2019-01-24T00:21:55.708Z,100045.82
2019-01-24T00:24:26.155Z,100039.89
2019-01-24T00:26:56.617Z,100048.78
2019-01-24T00:29:27.110Z,100046.72
2019-01-24T00:31:57.471Z,100048.41
2019-01-24T00:34:27.969Z,100056.03
2019-01-24T00:36:58.320Z,100058.58
2019-01-24T00:39:28.854Z,100063.27
2019-01-24T00:41:59.258Z,100072.19
2019-01-24T00:44:29.974Z,100067.05
2019-01-24T00:47:00.664Z,100071.78
2019-01-24T00:49:31.123Z,100073.84
2019-01-24T00:52:01.838Z,100070.84
2019-01-24T00:54:32.315Z,100065.33
2019-01-24T00:57:03.028Z,100071.66
2019-01-24T00:59:33.730Z,100076.39
2019-01-24T01:02:04.185Z,100075.48
2019-01-24T01:04:34.961Z,100072.08
2019-01-24T01:07:05.741Z,100079.31
2019-01-24T01:09:36.203Z,100086.51
2019-01-24T01:12:07.747Z,100087.75
2019-01-24T01:14:38.270Z,100087.38
2019-01-24T01:17:08.703Z,100092.47
2019-01-24T01:19:39.471Z,100099.72
2019-01-24T01:22:10.186Z,100098.44
2019-01-24T01:24:40.635Z,100106.86
2019-01-24T01:27:11.114Z,100110.70
2019-01-24T01:29:41.830Z,100109.46
2019-01-24T01:32:12.822Z,100100.95
2019-01-24T01:34:43.263Z,100103.04
2019-01-24T01:37:14.018Z,100114.89
2019-01-24T01:39:44.692Z,100111.97
2019-01-24T01:42:15.174Z,100114.16
2019-01-24T01:44:45.630Z,100115.34
2019-01-24T01:47:16.138Z,100112.80
2019-01-24T01:49:46.612Z,100117.48
2019-01-24T01:52:17.318Z,100125.58
2019-01-24T01:54:47.751Z,100128.09
2019-01-24T01:57:18.753Z,100123.41
2019-01-24T01:59:48.937Z,100127.27
2019-01-24T02:02:19.381Z,100130.19
2019-01-24T02:04:50.143Z,100131.54
2019-01-24T02:07:20.866Z,100140.02
2019-01-24T02:09:51.485Z,100136.15
2019-01-24T02:12:22.230Z,100132.73
2019-01-24T02:14:52.723Z,100136.55
2019-01-24T02:17:23.170Z,100133.97
2019-01-24T02:19:53.907Z,100133.14
2019-01-24T02:22:24.280Z,100133.59
2019-01-24T02:24:54.760Z,100140.28
2019-01-24T02:27:25.439Z,100139.92
2019-01-24T02:29:55.869Z,100142.47
2019-01-24T02:32:26.620Z,100135.13
2019-01-24T02:34:57.066Z,100144.52
2019-01-24T02:37:27.703Z,100142.43
2019-01-24T02:39:58.419Z,100142.83
2019-01-24T02:42:28.876Z,100141.97
2019-01-24T02:44:59.335Z,100145.37
2019-01-24T02:47:29.741Z,100146.25
2019-01-24T02:50:00.521Z,100146.25
2019-01-24T02:52:31.260Z,100150.11
2019-01-24T02:55:02.016Z,100157.77
2019-01-24T02:57:32.746Z,100154.26
2019-01-24T03:00:03.199Z,100157.62
2019-01-24T03:02:33.961Z,100162.61
2019-01-24T03:05:05.460Z,100160.53
2019-01-24T03:07:35.899Z,100160.13
2019-01-24T03:10:08.966Z,100153.34
2019-01-24T03:12:39.691Z,100159.35
2019-01-24T03:15:13.141Z,100152.63
2019-01-24T03:17:43.551Z,100148.34
2019-01-24T03:20:14.240Z,100152.17
2019-01-24T03:22:45.478Z,100156.80
2019-01-24T03:25:16.447Z,100156.45
2019-01-24T03:27:46.905Z,100154.31
2019-01-24T03:30:20.447Z,100152.98
2019-01-24T03:32:51.169Z,100150.73
2019-01-24T03:35:25.254Z,100154.20
2019-01-24T03:37:55.688Z,100153.80
2019-01-24T03:40:26.154Z,100151.61
2019-01-24T03:42:56.901Z,100158.84
2019-01-24T03:45:27.432Z,100161.86
2019-01-24T03:47:57.852Z,100163.58
2019-01-24T03:50:28.612Z,100165.67
2019-01-24T03:52:59.048Z,100158.89
2019-01-24T03:55:29.521Z,100169.55
2019-01-24T03:58:00.260Z,100170.82
2019-01-24T04:00:30.729Z,100162.77
2019-01-24T04:03:01.212Z,100175.47
2019-01-24T04:05:31.671Z,100169.90
2019-01-24T04:08:02.142Z,100175.86
2019-01-24T04:10:32.651Z,100176.28
2019-01-24T04:13:03.474Z,100173.78
2019-01-24T04:15:34.202Z,100183.52
2019-01-24T04:18:04.806Z,100179.70
2019-01-24T04:20:35.297Z,100184.73
2019-01-24T04:23:06.003Z,100185.61
2019-01-24T04:25:36.429Z,100182.66
2019-01-24T04:28:07.128Z,100183.10
2019-01-24T04:30:37.631Z,100190.75
2019-01-24T04:33:08.105Z,100191.58
2019-01-24T04:35:38.579Z,100195.45
2019-01-24T04:38:09.020Z,100201.41
2019-01-24T04:40:39.488Z,100206.09
2019-01-24T04:43:09.927Z,100207.78
2019-01-24T04:45:40.647Z,100211.20
2019-01-24T04:48:11.145Z,100209.47
2019-01-24T04:50:41.647Z,100218.79
2019-01-24T04:53:12.074Z,100211.97
2019-01-24T04:55:42.562Z,100209.41
2019-01-24T04:58:12.984Z,100208.49
2019-01-24T05:00:43.461Z,100218.27
2019-01-24T05:03:14.158Z,100221.70
2019-01-24T05:05:44.628Z,100227.25
2019-01-24T05:08:15.083Z,100227.66
2019-01-24T05:10:45.837Z,100234.44
2019-01-24T05:13:16.183Z,100242.88
2019-01-24T05:15:46.676Z,100235.89
2019-01-24T05:18:17.396Z,100238.54
2019-01-24T05:20:47.833Z,100241.16
2019-01-24T05:23:18.287Z,100250.02
2019-01-24T05:25:48.965Z,100249.56
2019-01-24T05:28:19.688Z,100243.52
2019-01-24T05:30:50.414Z,100244.39
2019-01-24T05:33:20.780Z,100243.75
2019-01-24T05:35:51.603Z,100248.39
2019-01-24T05:38:22.060Z,100250.55
2019-01-24T05:40:53.035Z,100245.39
2019-01-24T05:43:23.874Z,100251.29
2019-01-24T05:45:54.354Z,100259.86
2019-01-24T05:48:25.063Z,100253.03
2019-01-24T05:50:56.643Z,100248.28
2019-01-24T05:53:27.145Z,100252.05
2019-01-24T05:55:57.605Z,100249.56
2019-01-24T05:58:28.150Z,100248.22
2019-01-24T06:00:58.807Z,100245.67
2019-01-24T06:03:29.466Z,100241.02
2019-01-24T06:06:00.542Z,100240.22
2019-01-24T06:08:30.997Z,100246.24
2019-01-24T06:11:01.690Z,100241.50
2019-01-24T06:13:32.179Z,100244.92
2019-01-24T06:16:03.100Z,100254.77
2019-01-24T06:18:33.799Z,100253.56
2019-01-24T06:21:04.581Z,100255.98
2019-01-24T06:23:35.029Z,100253.37
2019-01-24T06:26:05.491Z,100256.38
2019-01-24T06:28:35.984Z,100250.41
2019-01-24T06:31:06.444Z,100260.00
2019-01-24T06:33:36.879Z,100261.01
2019-01-24T06:36:07.642Z,100265.18
2019-01-24T06:38:39.503Z,100267.20
2019-01-24T06:41:10.263Z,100274.09
2019-01-24T06:43:40.735Z,100279.98
2019-01-24T06:46:11.181Z,100284.97
2019-01-24T06:48:41.924Z,100289.67
2019-01-24T06:51:12.668Z,100293.55
2019-01-24T06:53:43.387Z,100299.05
2019-01-24T06:56:13.788Z,100302.52
2019-01-24T06:58:44.190Z,100306.22
2019-01-24T07:01:14.615Z,100298.04
2019-01-24T07:03:45.371Z,100313.73
2019-01-24T07:06:15.877Z,100314.25
2019-01-24T07:08:46.220Z,100324.45
2019-01-24T07:11:16.675Z,100335.91
2019-01-24T07:13:47.343Z,100335.83
2019-01-24T07:16:17.887Z,100335.93
2019-01-24T07:18:48.373Z,100339.87
2019-01-24T07:21:19.121Z,100344.56
2019-01-24T07:23:49.559Z,100346.17
2019-01-24T07:26:21.389Z,100349.18
2019-01-24T07:28:52.108Z,100352.02
2019-01-24T07:31:22.788Z,100363.48
2019-01-24T07:33:53.235Z,100362.65
2019-01-24T07:36:23.736Z,100368.95
2019-01-24T07:38:54.223Z,100371.02
2019-01-24T07:41:24.669Z,100376.66
2019-01-24T07:43:55.128Z,100386.13
2019-01-24T07:46:25.592Z,100385.97
2019-01-24T07:48:55.933Z,100385.97
2019-01-24T07:51:26.396Z,100385.59
2019-01-24T07:53:56.840Z,100389.42
2019-01-24T07:56:27.286Z,100389.00
2019-01-24T07:58:58.016Z,100395.86
2019-01-24T08:01:28.372Z,100403.44
2019-01-24T08:03:58.731Z,100409.41
2019-01-24T08:06:29.193Z,100409.78
2019-01-24T08:08:59.667Z,100408.53
2019-01-24T08:11:30.099Z,100410.28
2019-01-24T08:14:00.810Z,100417.45
2019-01-24T08:16:31.426Z,100420.13
2019-01-24T08:19:02.015Z,100419.76
2019-01-24T08:21:32.449Z,100429.13
2019-01-24T08:24:03.124Z,100428.27
2019-01-24T08:26:33.571Z,100432.09
2019-01-24T08:29:04.362Z,100432.17
2019-01-24T08:31:34.779Z,100434.25
2019-01-24T08:34:05.765Z,100435.98
2019-01-24T08:36:36.498Z,100436.84
2019-01-24T08:39:10.621Z,100439.72
2019-01-24T08:41:40.991Z,100436.38
2019-01-24T08:44:11.693Z,100446.70
2019-01-24T08:46:42.113Z,100442.42
2019-01-24T08:49:12.567Z,100439.34
2019-01-24T08:51:43.053Z,100443.71
2019-01-24T08:54:13.485Z,100444.66
2019-01-24T08:56:44.002Z,100442.91
2019-01-24T08:59:14.445Z,100437.39
2019-01-24T09:01:44.975Z,100442.82
2019-01-24T09:04:15.415Z,100447.50
2019-01-24T09:06:45.872Z,100451.80
2019-01-24T09:09:16.317Z,100447.59
2019-01-24T09:11:47.034Z,100433.64
2019-01-24T09:14:17.733Z,100441.83
2019-01-24T09:16:48.174Z,100437.17
2019-01-24T09:19:18.897Z,100436.83
2019-01-24T09:21:49.512Z,100438.57
2019-01-24T09:24:19.918Z,100438.70
2019-01-24T09:26:50.400Z,100431.13
2019-01-24T09:29:20.809Z,100438.85
2019-01-24T09:31:51.295Z,100427.44
2019-01-24T09:34:22.008Z,100431.79
2019-01-24T09:36:52.778Z,100431.86
2019-01-24T09:39:23.426Z,100430.30
2019-01-24T09:41:53.929Z,100430.30
2019-01-24T09:44:24.627Z,100435.46
2019-01-24T09:46:55.075Z,100441.52
2019-01-24T09:49:25.456Z,100440.84
2019-01-24T09:51:56.163Z,100444.73
2019-01-24T09:54:26.902Z,100453.89
2019-01-24T09:56:57.389Z,100455.16
2019-01-24T09:59:28.054Z,100460.26
2019-01-24T10:01:58.729Z,100465.36
2019-01-24T10:04:29.412Z,100462.41
2019-01-24T10:07:00.109Z,100465.81
2019-01-24T10:09:30.583Z,100468.36
2019-01-24T10:12:01.253Z,100469.64
2019-01-24T10:14:31.691Z,100473.02
2019-01-24T10:17:02.139Z,100477.30
2019-01-24T10:19:32.598Z,100478.25
2019-01-24T10:22:03.124Z,100478.45
2019-01-24T10:24:33.547Z,100481.88
2019-01-24T10:27:04.368Z,100479.64
2019-01-24T10:29:35.049Z,100486.01
2019-01-24T10:32:05.674Z,100485.07
2019-01-24T10:34:36.198Z,100482.14
2019-01-24T10:37:06.649Z,100482.18
2019-01-24T10:39:37.065Z,100479.23
2019-01-24T10:42:07.511Z,100482.60
2019-01-24T10:44:37.932Z,100486.02
2019-01-24T10:47:08.297Z,100480.99
2019-01-24T10:49:39.270Z,100478.92
2019-01-24T10:52:09.709Z,100485.28
2019-01-24T10:54:40.160Z,100488.40
2019-01-24T10:57:10.871Z,100487.91
2019-01-24T10:59:41.336Z,100490.41
2019-01-24T11:02:12.285Z,100487.50
2019-01-24T11:04:42.771Z,100487.98
2019-01-24T11:07:13.534Z,100491.34
2019-01-24T11:09:44.089Z,100487.52
2019-01-24T11:12:14.555Z,100493.03
2019-01-24T11:14:45.291Z,100485.09
2019-01-24T11:17:15.726Z,100486.04
2019-01-24T11:19:46.482Z,100483.01
2019-01-24T11:22:16.970Z,100480.48
2019-01-24T11:24:47.450Z,100488.92
2019-01-24T11:27:18.160Z,100494.16
2019-01-24T11:29:48.594Z,100494.95
2019-01-24T11:32:19.031Z,100497.84
2019-01-24T11:34:49.766Z,100507.13
2019-01-24T11:37:20.422Z,100508.80
2019-01-24T11:39:50.961Z,100507.13
2019-01-24T11:42:21.837Z,100500.75
2019-01-24T11:44:52.512Z,100498.72
2019-01-24T11:47:23.070Z,100507.12
2019-01-24T11:49:53.797Z,100509.32
2019-01-24T11:52:24.731Z,100501.22
2019-01-24T11:54:55.342Z,100496.64
2019-01-24T11:57:26.137Z,100492.53
2019-01-24T11:59:57.181Z,100491.73
2019-01-24T12:02:27.888Z,100491.80
2019-01-24T12:04:58.584Z,100492.60
2019-01-24T12:07:29.283Z,100502.28
2019-01-24T12:09:59.954Z,100498.59
2019-01-24T12:12:30.801Z,100495.16
2019-01-24T12:15:01.826Z,100495.64
2019-01-24T12:17:32.531Z,100493.42
2019-01-24T12:20:03.431Z,100501.53
2019-01-24T12:22:34.244Z,100502.77
2019-01-24T12:25:04.854Z,100497.78
2019-01-24T12:27:35.477Z,100495.28
2019-01-24T12:30:11.072Z,100494.03
2019-01-24T12:32:42.127Z,100498.00
2019-01-24T12:35:13.278Z,100494.70
2019-01-24T12:37:44.149Z,100490.93
2019-01-24T12:40:14.983Z,100499.46
2019-01-24T12:42:45.831Z,100506.25
2019-01-24T12:45:20.364Z,100502.89
2019-01-24T12:47:51.487Z,100502.83
2019-01-24T12:50:22.158Z,100509.61
2019-01-24T12:52:53.296Z,100510.94
2019-01-24T12:55:24.296Z,100504.69
2019-01-24T12:57:54.943Z,100497.09
2019-01-24T13:00:31.654Z,100496.82
2019-01-24T13:03:02.470Z,100494.27
2019-01-24T13:05:33.043Z,100491.02
2019-01-24T13:08:03.895Z,100494.03
2019-01-24T13:10:34.967Z,100490.20
2019-01-24T13:13:06.019Z,100485.20
2019-01-24T13:15:37.347Z,100483.86
2019-01-24T13:18:07.962Z,100483.92
2019-01-24T13:20:38.646Z,100483.92
2019-01-24T13:23:09.341Z,100485.50
2019-01-24T13:25:40.137Z,100493.05
2019-01-24T13:28:10.689Z,100492.59
2019-01-24T13:30:41.497Z,100496.81
2019-01-24T13:33:12.382Z,100506.56
2019-01-24T13:35:43.010Z,100506.92
2019-01-24T13:38:13.628Z,100509.52
2019-01-24T13:40:44.233Z,100506.56
2019-01-24T13:43:14.980Z,100508.17
2019-01-24T13:45:45.710Z,100509.41
2019-01-24T13:48:16.194Z,100511.66
2019-01-24T13:50:46.586Z,100511.13
2019-01-24T13:53:17.082Z,100516.23
2019-01-24T13:55:47.533Z,100518.20
2019-01-24T13:58:18.261Z,100529.22
2019-01-24T14:00:49.601Z,100530.08
2019-01-24T14:04:09.216Z,100528.73
2019-01-24T14:06:39.972Z,100528.20
2019-01-24T14:09:11.541Z,100531.69
2019-01-24T14:11:42.281Z,100534.17
2019-01-24T14:14:13.033Z,100523.44
2019-01-24T14:16:43.481Z,100528.13
2019-01-24T14:19:14.158Z,100523.84
2019-01-24T14:21:44.859Z,100532.28
2019-01-24T14:24:15.662Z,100530.48
2019-01-24T14:26:46.090Z,100531.37
2019-01-24T14:29:16.548Z,100528.48
2019-01-24T14:31:46.974Z,100529.75
2019-01-24T14:34:17.348Z,100527.59
2019-01-24T14:36:48.158Z,100532.09
2019-01-24T14:39:18.579Z,100535.11
2019-01-24T14:41:49.043Z,100537.52
2019-01-24T14:44:19.424Z,100542.77
2019-01-24T14:46:50.418Z,100542.77
2019-01-24T14:49:20.837Z,100544.49
2019-01-24T14:51:51.291Z,100539.31
2019-01-24T14:54:21.914Z,100537.97
2019-01-24T14:56:52.355Z,100546.38
2019-01-24T14:59:23.020Z,100554.88
2019-01-24T15:01:53.702Z,100554.75
2019-01-24T15:04:24.134Z,100547.95
2019-01-24T15:06:54.853Z,100547.64
2019-01-24T15:09:25.313Z,100554.48
2019-01-24T15:11:55.739Z,100558.26
2019-01-24T15:14:26.502Z,100554.11
2019-01-24T15:16:56.958Z,100563.99
2019-01-24T15:19:27.422Z,100559.53
2019-01-24T15:21:58.175Z,100566.46
2019-01-24T15:24:28.674Z,100572.41
2019-01-24T15:26:59.137Z,100575.77
2019-01-24T15:29:29.843Z,100570.67
2019-01-24T15:32:00.290Z,100577.03
2019-01-24T15:34:30.773Z,100575.28
2019-01-24T15:37:01.500Z,100585.87
2019-01-24T15:39:31.961Z,100587.97
2019-01-24T15:42:02.618Z,100591.30
2019-01-24T15:44:33.122Z,100589.20
2019-01-24T15:47:03.836Z,100585.70
2019-01-24T15:49:34.573Z,100593.77
2019-01-24T15:52:05.294Z,100588.59
2019-01-24T15:54:35.738Z,100591.05
2019-01-24T15:57:06.601Z,100595.80
2019-01-24T15:59:37.090Z,100606.78
2019-01-24T16:02:07.757Z,100608.06
2019-01-24T16:04:38.125Z,100609.28
2019-01-24T16:07:08.632Z,100607.45
2019-01-24T16:09:40.013Z,100610.93
2019-01-24T16:12:10.611Z,100607.59
2019-01-24T16:14:41.018Z,100618.52
2019-01-24T16:17:11.605Z,100618.09
2019-01-24T16:19:42.092Z,100618.91
2019-01-24T16:22:12.603Z,100617.32
2019-01-24T16:24:43.128Z,100621.07
2019-01-24T16:27:13.556Z,100626.17
2019-01-24T16:29:44.062Z,100627.34
2019-01-24T16:32:14.641Z,100634.09
2019-01-24T16:34:45.152Z,100636.70
2019-01-24T16:37:15.920Z,100634.09
2019-01-24T16:39:46.369Z,100636.73
2019-01-24T16:42:17.073Z,100632.81
2019-01-24T16:44:47.535Z,100639.11
2019-01-24T16:47:18.325Z,100638.30
2019-01-24T16:49:49.190Z,100634.45
2019-01-24T16:52:19.617Z,100631.91
2019-01-24T16:54:50.058Z,100634.30
2019-01-24T16:57:20.714Z,100628.30
2019-01-24T16:59:51.483Z,100631.04
2019-01-24T17:02:21.929Z,100632.67
2019-01-24T17:04:52.643Z,100632.64
2019-01-24T17:07:23.097Z,100630.95
2019-01-24T17:09:53.620Z,100632.36
2019-01-24T17:12:24.308Z,100631.04
2019-01-24T17:14:54.781Z,100639.27
2019-01-24T17:17:25.259Z,100647.45
2019-01-24T17:19:55.761Z,100651.37
2019-01-24T17:22:26.504Z,100655.67
2019-01-24T17:24:56.955Z,100656.91
2019-01-24T17:27:27.395Z,100660.34
2019-01-24T17:29:57.865Z,100656.94
2019-01-24T17:32:28.301Z,100662.09
2019-01-24T17:34:58.673Z,100661.53
2019-01-24T17:37:29.503Z,100655.09
2019-01-24T17:39:59.937Z,100650.38
2019-01-24T17:42:30.392Z,100657.23
2019-01-24T17:45:00.866Z,100652.62
2019-01-24T17:47:31.290Z,100649.67
2019-01-24T17:50:01.991Z,100655.73
2019-01-24T17:52:32.458Z,100658.22
2019-01-24T17:55:02.897Z,100662.79
2019-01-24T17:57:33.748Z,100663.75
2019-01-24T18:00:05.660Z,100663.84
2019-01-24T18:02:36.127Z,100671.94
2019-01-24T18:05:07.424Z,100669.45
2019-01-24T18:07:37.986Z,100684.92
2019-01-24T18:10:14.284Z,100684.47
2019-01-24T18:12:44.996Z,100693.25
2019-01-24T18:15:23.466Z,100694.52
2019-01-24T18:17:54.263Z,100691.16
2019-01-24T18:20:27.665Z,100692.48
2019-01-24T18:22:58.215Z,100702.07
2019-01-24T18:25:29.119Z,100703.77
2019-01-24T18:27:59.541Z,100705.84
2019-01-24T18:30:31.574Z,100715.14
2019-01-24T18:33:02.030Z,100716.03
2019-01-24T18:35:32.790Z,100715.70
2019-01-24T18:38:03.292Z,100720.72
2019-01-24T18:40:33.932Z,100722.77
2019-01-24T18:43:05.648Z,100722.36
2019-01-24T18:45:47.860Z,100716.82
2019-01-24T18:48:18.294Z,100718.44
2019-01-24T18:50:49.281Z,100724.83
2019-01-24T18:53:19.754Z,100732.11
2019-01-24T18:55:50.197Z,100730.53
2019-01-24T18:58:20.635Z,100740.34
2019-01-24T19:00:51.137Z,100733.86
2019-01-24T19:03:21.580Z,100738.55
2019-01-24T19:05:52.019Z,100743.73
2019-01-24T19:08:22.780Z,100741.20
2019-01-24T19:10:53.545Z,100736.98
2019-01-24T19:13:23.966Z,100739.45
2019-01-24T19:15:54.502Z,100739.04
2019-01-24T19:18:25.120Z,100736.98
2019-01-24T19:20:56.116Z,100741.66
2019-01-24T19:23:26.767Z,100743.19
2019-01-24T19:25:58.133Z,100744.16
2019-01-24T19:28:28.882Z,100745.91
2019-01-24T19:30:59.662Z,100755.30
2019-01-24T19:33:30.504Z,100752.27
2019-01-24T19:36:02.971Z,100752.65
2019-01-24T19:38:34.138Z,100751.88
2019-01-24T19:41:07.897Z,100753.16
2019-01-24T19:43:40.667Z,100756.62
2019-01-24T19:46:11.724Z,100756.19
2019-01-24T19:48:42.591Z,100765.11
2019-01-24T19:51:13.463Z,100757.46
2019-01-24T19:53:44.613Z,100760.44
2019-01-24T19:56:15.533Z,100758.86
2019-01-24T19:58:46.471Z,100760.52
2019-01-24T20:01:17.940Z,100759.02
2019-01-24T20:03:49.052Z,100758.58
2019-01-24T20:06:19.810Z,100759.06
2019-01-24T20:08:50.683Z,100753.94
2019-01-24T20:11:21.687Z,100761.22
2019-01-24T20:13:59.508Z,100758.66
2019-01-24T20:16:29.881Z,100754.44
2019-01-24T20:19:00.884Z,100756.51
2019-01-24T20:21:31.566Z,100754.02
2019-01-24T20:24:04.116Z,100758.58
2019-01-24T20:26:35.089Z,100762.86
2019-01-24T20:29:06.083Z,100761.69
2019-01-24T20:31:38.457Z,100763.13
2019-01-24T20:34:09.120Z,100760.80
2019-01-24T20:36:40.138Z,100757.84
2019-01-24T20:39:12.065Z,100756.66
2019-01-24T20:41:42.857Z,100758.55
2019-01-24T20:44:16.134Z,100757.69
2019-01-24T20:46:47.309Z,100760.77
2019-01-24T20:49:18.170Z,100767.17
2019-01-24T20:51:49.110Z,100775.20
2019-01-24T20:54:27.590Z,100779.71
2019-01-24T20:56:59.169Z,100777.36
2019-01-24T20:59:30.664Z,100777.60
2019-01-24T21:02:01.390Z,100779.50
2019-01-24T21:04:33.022Z,100779.91
2019-01-24T21:07:07.432Z,100784.41
2019-01-24T21:09:40.974Z,100778.25
2019-01-24T21:12:11.707Z,100779.94
2019-01-24T21:14:42.280Z,100773.05
2019-01-24T21:17:13.034Z,100772.20
2019-01-24T21:19:43.805Z,100772.75
2019-01-24T21:22:18.898Z,100774.02
2019-01-24T21:24:54.583Z,100775.80
2019-01-24T21:27:28.867Z,100775.30
2019-01-24T21:30:01.227Z,100771.48
2019-01-24T21:32:35.830Z,100769.41
2019-01-24T21:35:10.427Z,100780.49
2019-01-24T21:37:44.457Z,100782.97
2019-01-24T21:40:18.791Z,100776.69
2019-01-24T21:42:55.992Z,100779.61
2019-01-24T21:45:30.662Z,100778.68
2019-01-24T21:48:05.603Z,100783.16
2019-01-24T21:50:41.243Z,100788.95
2019-01-24T21:53:12.231Z,100784.83
2019-01-24T21:55:47.803Z,100781.41
2019-01-24T21:58:19.280Z,100784.27
2019-01-24T22:00:49.996Z,100783.06
2019-01-24T22:03:20.853Z,100776.69
2019-01-24T22:05:51.545Z,100774.86
2019-01-24T22:08:22.531Z,100780.13
2019-01-24T22:10:53.288Z,100786.72
2019-01-24T22:13:24.297Z,100786.41
2019-01-24T22:15:55.062Z,100782.60
2019-01-24T22:18:25.874Z,100786.81
2019-01-24T22:20:56.343Z,100792.96
2019-01-24T22:23:26.826Z,100791.91
2019-01-24T22:25:57.454Z,100791.48
2019-01-24T22:28:28.036Z,100792.35
2019-01-24T22:31:00.093Z,100792.38
2019-01-24T22:33:30.607Z,100796.58
2019-01-24T22:36:01.476Z,100800.89
2019-01-24T22:38:31.949Z,100800.45
2019-01-24T22:41:02.453Z,100803.92
2019-01-24T22:43:32.898Z,100802.19
2019-01-24T22:46:03.659Z,100795.43
2019-01-24T22:48:34.165Z,100801.52
2019-01-24T22:51:04.952Z,100809.14
2019-01-24T22:53:35.389Z,100814.22
2019-01-24T22:56:06.262Z,100808.56
2019-01-24T22:58:36.996Z,100813.40
2019-01-24T23:01:31.324Z,100812.27
2019-01-24T23:04:25.047Z,100810.50
2019-01-24T23:06:55.571Z,100810.13
2019-01-24T23:09:26.335Z,100813.06
2019-01-24T23:11:57.073Z,100811.42
2019-01-24T23:14:27.564Z,100818.19
2019-01-24T23:16:58.026Z,100815.21
2019-01-24T23:19:28.400Z,100816.87
2019-01-24T23:21:59.271Z,100818.55
2019-01-24T23:24:29.990Z,100815.25
2019-01-24T23:27:00.531Z,100812.66
2019-01-24T23:29:31.273Z,100816.53
2019-01-24T23:32:01.736Z,100817.47
2019-01-24T23:34:32.358Z,100814.05
2019-01-24T23:37:02.870Z,100811.50
2019-01-24T23:39:33.659Z,100814.47
2019-01-24T23:42:04.097Z,100812.47
2019-01-24T23:44:34.535Z,100808.09
2019-01-24T23:47:05.212Z,100812.87
2019-01-24T23:49:36.314Z,100810.62
2019-01-24T23:52:06.779Z,100810.64
2019-01-24T23:54:37.202Z,100818.70
2019-01-24T23:57:07.959Z,100818.34
2019-01-24T23:59:38.483Z,100821.73
